Pike County Airport

About
Name: Pike County Airport
Identifier:  PVL/KPBX
Local Time:  20. Aug 09:55 EDT
Location
Flights per Day
0 flights
Distance: 314km (195mi)
Punctuality
50% (0 flights per day delayed)
Delay Average: 15 minutes
Current Weather
 26 C (Humidity: 69%)
  3kt (5km/h / 3mph) from 160°
  16km (10 mi.)
 
 METAR KPBX 201335Z AUTO 16003KT 10SM CLR 26/20 A3014 RMK AO2 T02560204

Current Flights

Departures
Number Departure To Airline
Arrivals
Number Arrival From Airline

Current Delays

Departures
N/A
Arrivals
N/A

Destinations

Top Destinations
Airport Flights
per week
Seats
per week
  Jackson (MKL) 0 - 0 0
  Sevierville (GKT) 0 - 0 0
  Washington (WSG) 0 - 0 0
  Washington (IAD) 0 - 0 0
  Athens/Albany (ATO) 0 - 0 0
  Winder (WDR) 0 - 0 0
  Nashville (BNA) 0 - 0 0
  Cleveland (CLE) 0 - 0 0
  Roanoke (ROA) 0 - 0 0
  Charlottesville (CHO) 0 - 0 0
  London (LOZ) 0 - 0 0
  Clarksburg (CKB) 0 - 0 0
  Greenville (GDC) 0 - 0 0

Airlines & Planes

Top Airlines
Airline Flights
per Day
Seats
per Day
  National Airlines 0 -
  Flybe Nordic 0 -
NetJets 0 0
Top Plane Types
Model Flights Seats
Beech B200 Super King Air 0.1/day - 0
Cessna C182 0.1/day - 0
Cessna C56X 0.1/day - -0.13333333333333333
Beech B300 Super King Air 350 0.1/day - 0